Time;durP1;ratioP1;P1;durP2;ratioP2;P2;SDS_P1;SDS_P2;PMS_P1;PMS_P2;Temp;Humidity;BMP_temperature;BMP_pressure;BME280_temperature;BME280_humidity;BME280_pressure;Samples;Min_cycle;Max_cycle;Signal;HPM_P1;HPM_P2
2024/04/22 00:00:52;;;;;;;;;5.83;5.83;;;;;8.38;55.40;102398.41;2207117;26;2752290;-75
2024/04/22 00:02:06;;;;;;;;;7.00;7.00;;;;;8.38;55.46;102403.63;2205752;26;2742927;-75
2024/04/22 00:03:17;;;;;;;;;9.67;8.00;;;;;8.33;55.73;102395.75;2165794;26;3467989;-75
2024/04/22 00:04:28;;;;;;;;;8.67;7.33;;;;;8.30;56.11;102399.25;2179040;26;3466888;-75
2024/04/22 00:05:39;;;;;;;;;9.67;8.00;;;;;8.25;55.88;102395.72;2165824;26;2753381;-75
2024/04/22 00:06:53;;;;;;;;;9.50;9.00;;;;;8.22;56.49;102404.44;2193529;26;2748408;-74
2024/04/22 00:08:04;;;;;;;;;11.00;9.33;;;;;8.15;56.82;102402.69;2163266;26;3479390;-75
2024/04/22 00:09:15;;;;;;;;;8.00;8.00;;;;;8.14;56.84;102400.94;2178265;26;2746235;-74
2024/04/22 00:10:29;;;;;;;;;7.33;7.33;;;;;8.16;56.37;102393.09;2208595;25;2735660;-74
2024/04/22 00:11:43;;;;;;;;;9.83;8.50;;;;;8.18;56.64;102401.81;2207031;25;2742925;-75
2024/04/22 00:12:54;;;;;;;;;11.00;8.00;;;;;8.17;56.75;102394.84;2175847;26;3483603;-74
2024/04/22 00:14:08;;;;;;;;;8.33;8.33;;;;;8.19;56.20;102393.97;2209167;25;2735645;-74
2024/04/22 00:15:19;;;;;;;;;10.00;10.00;;;;;8.19;56.28;102395.72;2179867;25;3505374;-74
2024/04/22 00:16:30;;;;;;;;;10.33;9.33;;;;;8.21;56.21;102399.22;2170144;25;2765855;-75
2024/04/22 00:17:44;;;;;;;;;8.67;8.33;;;;;8.17;56.40;102394.84;2192838;26;2739785;-75
2024/04/22 00:18:55;;;;;;;;;10.67;10.33;;;;;8.19;56.77;102390.47;2162597;26;3502617;-75
2024/04/22 00:20:09;;;;;;;;;8.17;8.00;;;;;8.16;56.52;102383.50;2194095;26;2729418;-75
2024/04/22 00:21:20;;;;;;;;;11.00;10.00;;;;;8.20;56.49;102395.72;2177004;26;2777387;-75
2024/04/22 00:22:31;;;;;;;;;10.00;8.50;;;;;8.18;56.51;102379.13;2175694;26;2755400;-75
2024/04/22 00:23:44;;;;;;;;;9.00;8.83;;;;;8.20;56.60;102389.59;2205209;26;2733502;-75
2024/04/22 00:24:56;;;;;;;;;11.00;10.67;;;;;8.15;56.42;102386.13;2137073;26;3513700;-75
2024/04/22 00:26:07;;;;;;;;;9.00;9.00;;;;;8.15;56.64;102391.34;2139444;26;3480411;-74
2024/04/22 00:27:18;;;;;;;;;11.33;9.00;;;;;8.14;57.08;102385.22;2164341;26;3473108;-75
2024/04/22 00:28:30;;;;;;;;;11.33;11.33;;;;;8.18;56.51;102396.56;2162966;26;3509553;-74
2024/04/22 00:29:41;;;;;;;;;10.00;9.33;;;;;8.16;56.91;102393.09;2179510;26;1839886;-75
2024/04/22 00:30:52;;;;;;;;;11.33;11.33;;;;;8.19;56.83;102382.63;2138711;26;3510602;-75
2024/04/22 00:32:03;;;;;;;;;12.33;10.00;;;;;8.20;56.49;102393.09;2178005;26;2778477;-74
2024/04/22 00:33:17;;;;;;;;;9.67;9.67;;;;;8.21;56.52;102392.25;2207687;26;2741890;-75
2024/04/22 00:34:31;;;;;;;;;9.17;9.17;;;;;8.21;56.28;102388.75;2184264;25;2730422;-75
2024/04/22 00:35:42;;;;;;;;;10.67;9.33;;;;;8.22;56.61;102386.13;2141833;26;3491856;-75
2024/04/22 00:36:53;;;;;;;;;11.25;9.75;;;;;8.25;56.41;102398.34;2190587;26;1831517;-75
2024/04/22 00:38:07;;;;;;;;;6.67;6.00;;;;;8.23;56.73;102384.38;2199479;26;2736686;-75
2024/04/22 00:39:21;;;;;;;;;5.67;5.00;;;;;8.23;56.73;102389.63;2209372;25;2724233;-75
2024/04/22 00:40:32;;;;;;;;;9.33;9.00;;;;;8.22;57.17;102382.66;2177815;25;3466853;-75
2024/04/22 00:41:43;;;;;;;;;11.00;11.00;;;;;8.28;56.89;102390.50;2178071;26;3508507;-75
2024/04/22 00:42:59;;;;;;;;;9.33;8.17;;;;;8.30;57.00;102394.00;2206060;26;2742924;-75
2024/04/22 00:44:10;;;;;;;;;11.67;9.67;;;;;8.31;56.49;102384.41;2178142;25;3505697;-75
2024/04/22 00:45:22;;;;;;;;;11.25;10.50;;;;;8.29;57.06;102384.41;2194989;26;1841891;-75
2024/04/22 00:46:36;;;;;;;;;9.00;9.00;;;;;8.29;56.58;102389.66;2206594;26;2737705;-75
2024/04/22 00:47:50;;;;;;;;;3.00;1.83;;;;;8.32;56.87;102394.03;2183260;26;2729392;-75
2024/04/22 00:49:01;;;;;;;;;12.33;10.00;;;;;8.32;56.65;102391.41;2178547;25;2783599;-75
2024/04/22 00:50:15;;;;;;;;;6.67;6.00;;;;;8.30;56.70;102388.75;2193666;26;2742924;-75
2024/04/22 00:51:27;;;;;;;;;11.33;10.33;;;;;8.27;56.76;102387.91;2163272;26;3507506;-75
2024/04/22 00:52:39;;;;;;;;;13.00;10.00;;;;;8.29;56.74;102388.78;2166661;26;3516848;-75
2024/04/22 00:53:52;;;;;;;;;13.00;11.00;;;;;8.29;57.11;102389.66;2176777;25;3518338;-75
2024/04/22 00:55:03;;;;;;;;;15.00;11.00;;;;;8.29;56.73;102386.16;2160960;26;2794424;-75
2024/04/22 00:56:18;;;;;;;;;8.00;7.50;;;;;8.33;57.47;102383.53;2190906;26;2734588;-75
2024/04/22 00:57:29;;;;;;;;;10.67;9.00;;;;;8.36;57.45;102384.41;2162616;26;3487690;-75
2024/04/22 00:58:40;;;;;;;;;15.67;12.00;;;;;8.38;56.51;102382.66;2162225;26;3521033;-74
2024/04/22 00:59:55;;;;;;;;;9.17;9.17;;;;;8.42;56.65;102392.31;2200708;26;2746026;-75
2024/04/22 01:01:12;;;;;;;;;9.33;9.00;;;;;8.42;56.87;102387.91;2183366;26;2738751;-75
2024/04/22 01:02:24;;;;;;;;;10.00;9.00;;;;;8.44;57.19;102393.19;2152243;25;2767904;-75
2024/04/22 01:03:36;;;;;;;;;8.75;8.75;;;;;8.42;57.36;102387.91;2192434;25;1833609;-74
2024/04/22 01:04:48;;;;;;;;;9.67;9.00;;;;;8.42;56.51;102393.16;2163417;26;2745511;-75
2024/04/22 01:05:59;;;;;;;;;10.33;10.33;;;;;8.46;57.03;102391.44;2162194;26;3499170;-75
2024/04/22 01:07:12;;;;;;;;;7.00;6.00;;;;;8.48;56.53;102394.06;2194463;26;2743951;-75
2024/04/22 01:08:26;;;;;;;;;8.17;7.50;;;;;8.49;57.10;102391.47;2192365;26;2746053;-75
2024/04/22 01:09:40;;;;;;;;;7.50;7.50;;;;;8.49;56.54;102380.09;2194048;26;2748195;-75
2024/04/22 01:10:51;;;;;;;;;11.00;9.33;;;;;8.49;56.50;102387.97;2164124;26;2763817;-75
2024/04/22 01:12:02;;;;;;;;;8.33;7.67;;;;;8.50;57.34;102387.94;2164862;26;2739787;-75
2024/04/22 01:13:13;;;;;;;;;14.33;10.00;;;;;8.51;57.11;102379.22;2175959;26;3511936;-75
2024/04/22 01:14:27;;;;;;;;;9.00;8.17;;;;;8.56;57.48;102394.97;2202495;25;2741967;-74
2024/04/22 01:15:38;;;;;;;;;12.00;10.00;;;;;8.58;57.08;102394.94;2165261;26;3510611;-75
2024/04/22 01:16:54;;;;;;;;;13.00;10.00;;;;;8.59;57.16;102395.00;2179112;26;1844040;-75
2024/04/22 01:18:05;;;;;;;;;11.67;8.67;;;;;8.50;57.28;102390.56;2164661;26;3472050;-75
2024/04/22 01:19:16;;;;;;;;;11.00;8.33;;;;;8.50;56.99;102398.44;2165256;26;2758558;-75
2024/04/22 01:20:27;;;;;;;;;10.33;9.00;;;;;8.48;56.94;102389.69;2177603;26;2769072;-75
2024/04/22 01:21:38;;;;;;;;;11.00;8.00;;;;;8.49;56.87;102387.97;2171216;26;3464771;-75
2024/04/22 01:22:49;;;;;;;;;11.00;8.00;;;;;8.48;56.74;102388.81;2171300;26;2758678;-75
2024/04/22 01:24:01;;;;;;;;;11.00;10.33;;;;;8.48;56.90;102384.47;2173046;26;3510606;-75
2024/04/22 01:25:17;;;;;;;;;12.67;9.50;;;;;8.47;57.06;102393.19;2208859;25;2763135;-75
2024/04/22 01:26:28;;;;;;;;;11.00;10.00;;;;;8.46;57.09;102394.06;2152065;26;2784590;-74
2024/04/22 01:27:39;;;;;;;;;10.00;10.00;;;;;8.49;56.80;102388.84;2177176;26;3509562;-75
2024/04/22 01:28:53;;;;;;;;;8.50;7.67;;;;;8.49;57.29;102377.47;2198333;26;2738742;-75
2024/04/22 01:30:08;;;;;;;;;9.00;9.00;;;;;8.53;57.03;102381.84;2163680;26;3466846;-74
2024/04/22 01:31:19;;;;;;;;;9.67;9.00;;;;;8.49;56.72;102378.34;2169523;26;2755514;-75
2024/04/22 01:32:31;;;;;;;;;11.67;10.67;;;;;8.48;57.32;102378.34;2176381;26;3511678;-75
2024/04/22 01:33:42;;;;;;;;;11.33;9.33;;;;;8.49;56.82;102383.59;2165571;26;2773207;-75
2024/04/22 01:34:57;;;;;;;;;9.83;8.50;;;;;8.49;57.28;102378.34;2196205;26;2765104;-75
2024/04/22 01:36:08;;;;;;;;;12.00;10.00;;;;;8.47;56.80;102374.84;2164845;26;3516879;-75
2024/04/22 01:37:19;;;;;;;;;12.67;9.33;;;;;8.49;57.07;102370.50;2164119;26;2760650;-74
2024/04/22 01:38:30;;;;;;;;;10.00;8.00;;;;;8.49;57.81;102375.72;2163139;26;2752276;-74
2024/04/22 01:39:42;;;;;;;;;10.50;10.00;;;;;8.48;57.13;102375.72;2161310;26;2782439;-75
2024/04/22 01:40:53;;;;;;;;;10.00;10.00;;;;;8.37;57.53;102379.16;2138455;26;3491844;-75
2024/04/22 01:42:07;;;;;;;;;10.83;9.50;;;;;8.26;57.38;102378.28;2207267;25;2764852;-75
2024/04/22 01:43:19;;;;;;;;;10.00;9.33;;;;;8.25;57.75;102376.53;2167435;26;3486653;-75
2024/04/22 01:44:32;;;;;;;;;9.00;9.00;;;;;8.26;57.86;102379.16;2193837;26;2743987;-75
2024/04/22 01:45:43;;;;;;;;;11.33;10.33;;;;;8.24;57.66;102369.53;2147217;26;3496011;-75
2024/04/22 01:46:54;;;;;;;;;14.00;10.67;;;;;8.29;58.14;102373.06;2176766;25;3510865;-75
2024/04/22 01:48:06;;;;;;;;;12.25;12.25;;;;;8.29;57.88;102379.19;2194321;26;1850311;-75
2024/04/22 01:49:20;;;;;;;;;8.83;8.33;;;;;8.30;57.61;102370.44;2206178;26;2742397;-74
2024/04/22 01:50:32;;;;;;;;;13.50;11.50;;;;;8.31;58.25;102374.81;2168252;26;1837805;-76
2024/04/22 01:51:47;;;;;;;;;11.00;9.83;;;;;8.29;58.03;102376.56;2200866;26;2755424;-75
2024/04/22 01:52:58;;;;;;;;;11.00;11.00;;;;;8.27;58.29;102365.16;2162631;26;1843940;-74
2024/04/22 01:54:09;;;;;;;;;12.00;10.00;;;;;8.27;58.08;102365.16;2166018;26;2784590;-75
2024/04/22 01:55:22;;;;;;;;;17.33;13.00;;;;;8.24;58.18;102369.53;2166248;25;3539747;-75
2024/04/22 01:56:36;;;;;;;;;10.83;8.00;;;;;8.21;57.88;102371.28;2192873;26;2754390;-75
2024/04/22 01:57:47;;;;;;;;;13.33;11.33;;;;;8.22;57.64;102366.94;2125067;26;3510068;-75
2024/04/22 01:58:58;;;;;;;;;12.33;10.33;;;;;8.22;57.87;102369.53;2177695;26;3506459;-75
2024/04/22 02:00:10;;;;;;;;;11.33;11.33;;;;;8.22;58.14;102361.69;2174380;25;3514765;-75
2024/04/22 02:01:22;;;;;;;;;11.00;10.50;;;;;8.22;58.16;102357.31;2191204;26;1821075;-75
2024/04/22 02:02:35;;;;;;;;;14.00;11.00;;;;;8.23;58.17;102358.19;2162651;26;2789781;-75
2024/04/22 02:03:49;;;;;;;;;9.67;9.00;;;;;8.21;58.05;102355.56;2192166;26;2752295;-75
2024/04/22 02:05:00;;;;;;;;;11.33;10.00;;;;;8.25;57.98;102351.19;2152045;26;1839788;-75
2024/04/22 02:06:11;;;;;;;;;13.33;10.33;;;;;8.18;57.70;102355.56;2136969;26;3516869;-75
2024/04/22 02:07:22;;;;;;;;;17.00;14.67;;;;;8.19;58.26;102359.06;2160798;26;3537082;-75
2024/04/22 02:08:34;;;;;;;;;16.00;12.50;;;;;8.19;58.47;102351.19;2177926;26;1844411;-75
2024/04/22 02:09:45;;;;;;;;;14.00;13.33;;;;;8.19;58.13;102359.06;2190396;26;1835602;-74
2024/04/22 02:10:56;;;;;;;;;14.67;11.67;;;;;8.16;58.21;102357.28;2137993;26;3522395;-75
2024/04/22 02:12:07;;;;;;;;;11.50;11.00;;;;;8.12;57.95;102352.03;2162819;26;2792927;-75
2024/04/22 02:13:19;;;;;;;;;14.50;11.00;;;;;8.12;57.94;102359.91;2176036;26;2787135;-75
2024/04/22 02:14:30;;;;;;;;;12.67;11.67;;;;;8.13;58.11;102353.78;2149199;26;3520988;-75
2024/04/22 02:15:41;;;;;;;;;15.67;13.00;;;;;8.14;57.78;102358.16;2142732;26;3524128;-75
2024/04/22 02:16:52;;;;;;;;;11.33;11.33;;;;;8.13;57.93;102348.53;2179041;26;1841887;-75
2024/04/22 02:18:05;;;;;;;;;15.67;12.00;;;;;8.14;58.45;102347.69;2137536;26;3517879;-75
2024/04/22 02:19:17;;;;;;;;;11.75;11.75;;;;;8.16;58.41;102346.81;2178844;26;1841856;-75
2024/04/22 02:20:29;;;;;;;;;15.00;13.00;;;;;8.17;59.03;102345.06;2177754;26;1854439;-75
2024/04/22 02:21:40;;;;;;;;;12.00;12.00;;;;;8.14;58.62;102332.84;2161668;26;2795014;-75
2024/04/22 02:22:51;;;;;;;;;17.50;12.00;;;;;8.15;57.98;102345.06;2163015;26;2804365;-75
2024/04/22 02:24:02;;;;;;;;;11.50;10.50;;;;;8.13;58.38;102345.91;2135016;26;2786633;-75
2024/04/22 02:25:13;;;;;;;;;14.00;14.00;;;;;8.08;58.23;102332.81;2140460;26;2802284;-75
2024/04/22 02:26:24;;;;;;;;;16.00;16.00;;;;;8.06;58.57;102335.44;2161490;26;2793965;-75
2024/04/22 02:27:38;;;;;;;;;6.50;6.00;;;;;8.03;58.63;102345.00;2192560;26;2754391;-75
2024/04/22 02:28:49;;;;;;;;;14.00;12.00;;;;;7.99;58.80;102341.53;2136316;26;2788773;-75
2024/04/22 02:30:00;;;;;;;;;12.50;12.50;;;;;7.97;59.01;102343.25;2165507;26;2791886;-74
2024/04/22 02:31:11;;;;;;;;;11.50;11.00;;;;;7.95;59.11;102347.63;2176156;25;2781453;-75
2024/04/22 02:32:23;;;;;;;;;12.00;12.00;;;;;7.91;59.17;102343.22;2176171;25;2788847;-75
2024/04/22 02:33:34;;;;;;;;;12.00;10.50;;;;;7.92;58.68;102347.59;2144251;26;2771061;-75
2024/04/22 02:34:45;;;;;;;;;12.00;11.50;;;;;7.90;58.97;102341.50;2159081;26;2791884;-75
2024/04/22 02:35:56;;;;;;;;;11.00;11.00;;;;;7.86;58.83;102343.19;2176254;26;2784582;-75
2024/04/22 02:37:07;;;;;;;;;16.00;12.50;;;;;7.81;59.36;102335.34;2162068;26;2802393;-75
2024/04/22 02:38:18;;;;;;;;;18.00;11.00;;;;;7.80;59.37;102343.19;2134652;26;2804362;-75
2024/04/22 02:39:29;;;;;;;;;18.00;14.00;;;;;7.82;59.28;102350.19;2138467;26;2801279;-75
2024/04/22 02:40:40;;;;;;;;;16.00;12.00;;;;;7.82;59.34;102347.56;2161518;26;2801252;-74
2024/04/22 02:41:54;;;;;;;;;16.00;13.33;;;;;7.85;59.14;102346.72;2168341;26;1831557;-75
2024/04/22 02:43:05;;;;;;;;;17.00;16.00;;;;;7.86;59.29;102345.81;2150835;26;2825189;-75
2024/04/22 02:44:17;;;;;;;;;15.75;15.75;;;;;7.83;59.27;102340.56;2154070;26;1837729;-75
2024/04/22 02:45:28;;;;;;;;;14.00;14.00;;;;;7.85;59.74;102351.94;2173432;26;2793929;-75
2024/04/22 02:46:40;;;;;;;;;17.75;14.75;;;;;7.83;59.34;102343.19;2165362;25;1842885;-75
2024/04/22 02:47:51;;;;;;;;;15.50;13.00;;;;;7.81;59.38;102350.16;2175774;25;2788752;-75
2024/04/22 02:49:02;;;;;;;;;20.00;15.50;;;;;7.79;59.41;102349.28;2174664;26;2825201;-75
2024/04/22 02:50:14;;;;;;;;;16.00;15.00;;;;;7.76;59.80;102344.91;2140550;26;2808481;-75
2024/04/22 02:51:25;;;;;;;;;15.50;13.50;;;;;7.76;59.99;102355.38;2147775;26;2804385;-75
2024/04/22 02:52:36;;;;;;;;;19.00;16.50;;;;;7.71;59.16;102354.47;2149113;25;2820441;-75
2024/04/22 02:53:47;;;;;;;;;15.50;15.00;;;;;7.70;59.63;102350.13;2151970;25;2800226;-75
2024/04/22 02:54:58;;;;;;;;;13.00;11.00;;;;;7.70;59.74;102342.28;2150384;25;2786963;-75
2024/04/22 02:56:09;;;;;;;;;17.50;17.50;;;;;7.69;59.74;102346.63;2164762;25;2807509;-74
2024/04/22 02:57:20;;;;;;;;;17.00;14.00;;;;;7.70;59.53;102345.78;2135485;26;2796031;-75
2024/04/22 02:58:31;;;;;;;;;15.00;14.00;;;;;7.68;59.79;102351.84;2138313;26;2789783;-75
2024/04/22 02:59:42;;;;;;;;;17.00;15.00;;;;;7.64;59.89;102341.38;2177913;25;2810025;-75
2024/04/22 03:00:56;;;;;;;;;15.50;15.00;;;;;7.64;59.77;102345.72;2210289;26;1837844;-75
2024/04/22 03:02:08;;;;;;;;;16.50;15.25;;;;;7.64;60.02;102351.84;2166496;26;1843047;-75
2024/04/22 03:03:19;;;;;;;;;16.00;14.50;;;;;7.62;59.61;102353.56;2175140;25;2807550;-75
2024/04/22 03:04:30;;;;;;;;;15.50;13.50;;;;;7.59;59.98;102350.94;2136043;26;2804341;-75
2024/04/22 03:05:41;;;;;;;;;17.50;14.00;;;;;7.55;60.31;102357.03;2139677;26;2796070;-75
2024/04/22 03:06:54;;;;;;;;;15.25;14.25;;;;;7.48;60.01;102353.47;2191039;26;1841986;-75
2024/04/22 03:08:05;;;;;;;;;20.00;16.00;;;;;7.46;60.37;102356.97;2175968;26;2828357;-75
2024/04/22 03:09:17;;;;;;;;;16.50;13.50;;;;;7.41;60.57;102349.94;2152737;26;2804353;-75
2024/04/22 03:10:28;;;;;;;;;16.00;12.00;;;;;7.41;60.28;102357.78;2149650;26;2801309;-75
2024/04/22 03:11:41;;;;;;;;;19.00;15.67;;;;;7.39;60.53;102358.66;2183657;26;1837791;-75
2024/04/22 03:12:52;;;;;;;;;16.00;15.00;;;;;7.35;60.65;102351.66;2148998;25;2797101;-75
2024/04/22 03:14:06;;;;;;;;;18.00;14.33;;;;;7.30;60.89;102359.47;2207520;26;1829492;-75
2024/04/22 03:15:17;;;;;;;;;17.00;15.50;;;;;7.26;61.00;102361.19;2146000;26;2827300;-75
2024/04/22 03:16:29;;;;;;;;;16.00;16.00;;;;;7.25;60.86;102358.56;2134677;26;3547039;-75
2024/04/22 03:17:44;;;;;;;;;18.29;15.14;;;;;7.22;60.78;102359.41;2208418;26;1831483;-75
2024/04/22 03:18:55;;;;;;;;;18.50;16.00;;;;;7.20;60.91;102356.81;2176067;25;2829384;-74
2024/04/22 03:20:07;;;;;;;;;17.00;14.00;;;;;7.23;60.87;102362.91;2148617;25;2810854;-75
2024/04/22 03:21:18;;;;;;;;;15.00;15.00;;;;;7.20;61.46;102363.75;2149627;26;2800210;-75
2024/04/22 03:22:29;;;;;;;;;17.50;15.00;;;;;7.20;61.16;102364.66;2149444;25;2819982;-75
2024/04/22 03:23:43;;;;;;;;;17.33;15.50;;;;;7.19;61.33;102354.16;2181867;26;1838188;-75
2024/04/22 03:24:54;;;;;;;;;13.00;13.00;;;;;7.21;61.07;102355.03;2149832;26;2792933;-75
2024/04/22 03:26:05;;;;;;;;;15.00;14.50;;;;;7.24;61.29;102352.44;2148838;26;2798362;-75
2024/04/22 03:27:16;;;;;;;;;20.00;17.50;;;;;7.28;61.36;102361.22;2151863;25;2829674;-75
2024/04/22 03:28:27;;;;;;;;;17.50;15.00;;;;;7.23;61.34;102353.34;2149868;26;2814749;-75
2024/04/22 03:29:38;;;;;;;;;17.00;14.00;;;;;7.23;61.28;102347.22;2151507;26;2805445;-74
2024/04/22 03:30:52;;;;;;;;;19.00;16.17;;;;;7.22;61.11;102350.69;2210704;25;1824192;-75
2024/04/22 03:32:03;;;;;;;;;20.00;17.00;;;;;7.24;61.56;102354.19;2150803;25;2828360;-74
2024/04/22 03:33:15;;;;;;;;;17.50;13.25;;;;;7.18;61.50;102350.69;2164415;26;1859660;-75
2024/04/22 03:34:26;;;;;;;;;17.50;15.00;;;;;7.16;61.43;102344.53;2168323;26;2808991;-75
2024/04/22 03:35:38;;;;;;;;;23.33;18.67;;;;;7.21;61.64;102347.19;2164850;26;2824256;-74
2024/04/22 03:36:50;;;;;;;;;28.00;21.00;;;;;7.14;61.73;102345.41;2173379;26;3582521;-75
2024/04/22 03:38:01;;;;;;;;;22.00;18.50;;;;;7.14;61.59;102346.28;2163369;26;2834669;-75
2024/04/22 03:39:12;;;;;;;;;16.50;14.00;;;;;7.10;61.94;102341.91;2151032;25;2803832;-75
2024/04/22 03:40:23;;;;;;;;;19.00;16.00;;;;;7.08;61.68;102338.41;2140595;26;2817371;-74
2024/04/22 03:41:34;;;;;;;;;16.50;14.00;;;;;7.02;61.70;102339.22;2135049;26;2795984;-75
2024/04/22 03:42:45;;;;;;;;;20.50;18.00;;;;;7.00;62.03;102343.56;2138847;26;2820053;-74
2024/04/22 03:44:00;;;;;;;;;21.43;18.00;;;;;7.00;62.51;102347.91;2179848;26;1838912;-75
2024/04/22 03:45:11;;;;;;;;;15.00;15.00;;;;;6.95;61.98;102340.91;2175151;26;2797101;-75
2024/04/22 03:51:12;;;;;;;;;21.80;16.20;;;;;6.94;62.11;102352.22;2196389;26;2830446;-75
2024/04/22 03:52:24;;;;;;;;;19.25;16.00;;;;;6.95;62.06;102348.75;2162604;26;1862745;-75
2024/04/22 03:53:35;;;;;;;;;20.00;19.00;;;;;6.96;62.67;102354.88;2174563;26;2848387;-75
2024/04/22 03:54:46;;;;;;;;;16.50;14.50;;;;;6.95;62.71;102348.75;2144036;26;2825147;-75
2024/04/22 03:55:58;;;;;;;;;22.67;16.67;;;;;6.93;62.51;102350.50;2136129;26;3563721;-75
2024/04/22 03:57:11;;;;;;;;;21.40;18.00;;;;;6.90;62.62;102345.22;2181086;26;2827261;-75
2024/04/22 03:58:26;;;;;;;;;22.00;19.00;;;;;6.91;62.52;102344.38;2166348;26;1833640;-75
2024/04/22 03:59:38;;;;;;;;;23.50;18.00;;;;;6.91;62.62;102347.00;2153325;26;2836671;-75
2024/04/22 04:00:52;;;;;;;;;18.83;16.00;;;;;6.92;62.52;102351.34;2183346;26;1826370;-75
2024/04/22 04:02:06;;;;;;;;;27.50;21.33;;;;;6.92;62.46;102356.56;2165667;26;1841903;-75
2024/04/22 04:03:18;;;;;;;;;21.67;19.67;;;;;6.92;62.31;102348.72;2142839;26;2833622;-75
2024/04/22 04:04:31;;;;;;;;;20.50;16.50;;;;;6.95;62.34;102347.88;2204682;26;1834647;-74
2024/04/22 04:05:43;;;;;;;;;20.67;19.00;;;;;6.96;62.10;102350.50;2150178;26;2824256;-75
2024/04/22 04:06:54;;;;;;;;;17.50;16.50;;;;;6.94;62.98;102357.44;2175863;26;2824151;-75
2024/04/22 04:08:09;;;;;;;;;16.14;14.14;;;;;6.82;63.05;102355.59;2179979;26;1828433;-75
2024/04/22 04:09:23;;;;;;;;;28.00;21.60;;;;;6.82;63.14;102362.56;2195394;26;2845005;-75
2024/04/22 04:10:35;;;;;;;;;22.67;19.33;;;;;6.78;62.92;102360.78;2149321;26;3572079;-74
2024/04/22 04:11:47;;;;;;;;;27.00;20.33;;;;;6.77;63.16;102352.06;2160919;26;3573107;-74
2024/04/22 04:12:58;;;;;;;;;19.50;18.50;;;;;6.77;62.81;102352.06;2176563;26;2828345;-74
2024/04/22 04:14:11;;;;;;;;;18.00;16.80;;;;;6.75;62.80;102349.47;2165993;26;2814805;-74
2024/04/22 04:15:24;;;;;;;;;18.80;18.20;;;;;6.78;63.19;102347.72;2171898;25;2826188;-74
2024/04/22 04:16:35;;;;;;;;;18.00;14.50;;;;;6.80;63.15;102351.22;2150243;26;2797070;-75
2024/04/22 04:17:47;;;;;;;;;19.67;17.67;;;;;6.79;62.87;102352.09;2146329;25;3568889;-75
2024/04/22 04:18:58;;;;;;;;;15.50;15.50;;;;;6.79;63.02;102358.19;2173398;25;2802266;-74
2024/04/22 04:20:09;;;;;;;;;21.00;18.00;;;;;6.81;63.11;102361.72;2146291;26;2826196;-75
2024/04/22 04:21:21;;;;;;;;;23.33;18.33;;;;;6.81;62.87;102358.22;2145456;26;3566899;-74
2024/04/22 04:22:35;;;;;;;;;19.33;16.67;;;;;6.82;63.28;102354.72;2193278;26;1833572;-74
2024/04/22 04:23:46;;;;;;;;;22.50;18.00;;;;;6.84;63.26;102355.63;2136849;26;2834858;-74
2024/04/22 04:24:58;;;;;;;;;24.33;22.33;;;;;6.83;62.82;102348.66;2135179;26;3571992;-74
2024/04/22 04:26:09;;;;;;;;;18.00;15.00;;;;;6.87;62.80;102358.25;2165959;26;2806448;-75
2024/04/22 04:27:24;;;;;;;;;20.14;16.29;;;;;6.88;62.91;102346.94;2180926;26;1832587;-74
2024/04/22 04:28:37;;;;;;;;;15.80;15.20;;;;;6.86;62.71;102353.91;2191215;26;2802670;-74
2024/04/22 04:29:48;;;;;;;;;19.00;16.50;;;;;6.87;62.93;102350.41;2148744;26;2836647;-75
2024/04/22 04:31:00;;;;;;;;;19.33;15.33;;;;;6.88;62.77;102352.19;2149781;26;2819938;-74
2024/04/22 04:32:12;;;;;;;;;19.67;19.00;;;;;6.89;63.08;102353.91;2169158;26;2829463;-74
2024/04/22 04:33:27;;;;;;;;;17.57;14.57;;;;;6.91;62.67;102348.72;2206562;26;1832595;-74
2024/04/22 04:34:40;;;;;;;;;17.00;17.00;;;;;6.90;62.77;102347.84;2175524;26;2790876;-75
2024/04/22 04:36:06;;;;;;;;;22.00;17.67;;;;;6.88;62.71;102346.06;2139932;26;3574229;-74
2024/04/22 04:37:19;;;;;;;;;21.40;18.20;;;;;6.85;62.71;102346.91;2192847;26;2831410;-74
2024/04/22 04:38:30;;;;;;;;;18.00;16.00;;;;;6.86;62.84;102351.31;2149829;25;2823384;-74
2024/04/22 04:39:42;;;;;;;;;17.50;17.00;;;;;6.88;62.72;102346.06;2152676;25;2814123;-74
2024/04/22 04:40:53;;;;;;;;;17.50;17.00;;;;;6.88;62.46;102357.41;2150148;26;2825065;-74
2024/04/22 04:42:05;;;;;;;;;22.33;18.00;;;;;6.88;62.58;102359.13;2131920;26;3563757;-75
2024/04/22 04:43:16;;;;;;;;;21.00;18.50;;;;;6.86;63.14;102352.16;2167725;26;2816857;-74
2024/04/22 04:44:27;;;;;;;;;18.00;17.50;;;;;6.85;62.44;102355.66;2145292;26;2824141;-74
2024/04/22 04:45:38;;;;;;;;;18.00;17.00;;;;;6.90;62.89;102355.69;2152843;26;2823561;-74
2024/04/22 04:46:50;;;;;;;;;20.33;17.00;;;;;6.90;62.74;102355.69;2149298;26;2824177;-75
2024/04/22 04:48:03;;;;;;;;;25.80;20.00;;;;;6.91;63.19;102362.69;2180376;26;2836657;-75
2024/04/22 04:49:14;;;;;;;;;18.00;16.50;;;;;6.89;62.90;102353.91;2136426;26;2812718;-74
2024/04/22 04:50:25;;;;;;;;;17.50;14.50;;;;;6.88;63.06;102360.03;2146868;26;2807443;-74
2024/04/22 04:51:36;;;;;;;;;15.00;14.00;;;;;6.90;63.05;102360.91;2151170;26;2796051;-74
2024/04/22 04:52:47;;;;;;;;;14.00;14.00;;;;;6.88;62.90;102366.97;2137059;26;2791833;-75
2024/04/22 04:54:02;;;;;;;;;24.29;19.86;;;;;6.87;62.85;102358.25;2176897;26;1839852;-75
2024/04/22 04:55:15;;;;;;;;;22.83;18.33;;;;;6.90;63.18;102373.09;2207254;26;1838837;-75
2024/04/22 04:56:27;;;;;;;;;22.00;18.00;;;;;6.89;63.27;102374.81;2151578;25;2819025;-75
2024/04/22 04:57:41;;;;;;;;;23.57;21.71;;;;;6.89;63.07;102368.75;2181527;25;1835649;-74
2024/04/22 04:58:52;;;;;;;;;22.50;18.50;;;;;6.90;63.05;102371.38;2177436;25;2836691;-74
2024/04/22 05:00:06;;;;;;;;;20.00;18.67;;;;;6.88;62.76;102377.44;2150456;25;3567871;-74
2024/04/22 05:01:17;;;;;;;;;22.00;18.00;;;;;6.92;63.08;102380.09;2177532;26;2837658;-74
2024/04/22 05:02:29;;;;;;;;;18.67;17.00;;;;;6.93;62.78;102381.84;2148939;26;3559630;-74
2024/04/22 05:03:41;;;;;;;;;25.33;22.33;;;;;6.92;62.82;102373.97;2176168;25;3577314;-74
2024/04/22 05:04:54;;;;;;;;;11.33;9.50;;;;;6.92;63.32;102380.09;2205761;26;2765884;-74
2024/04/22 05:06:06;;;;;;;;;22.67;21.00;;;;;6.93;62.63;102375.75;2149205;26;3564822;-74
2024/04/22 05:07:20;;;;;;;;;19.67;17.83;;;;;6.93;63.06;102376.63;2199484;26;1837736;-74
2024/04/22 05:08:33;;;;;;;;;23.80;17.00;;;;;6.97;63.05;102381.00;2171516;26;2817902;-75
2024/04/22 05:09:47;;;;;;;;;24.83;21.67;;;;;6.98;62.62;102380.16;2161960;26;2852241;-74
2024/04/22 05:11:04;;;;;;;;;21.57;19.14;;;;;7.00;62.99;102374.94;2192339;26;1842036;-74
2024/04/22 05:12:16;;;;;;;;;18.00;16.50;;;;;7.01;62.94;102378.44;2166081;26;2813787;-74
2024/04/22 05:13:30;;;;;;;;;19.14;18.43;;;;;7.05;62.87;102380.19;2175707;25;1841947;-74
2024/04/22 05:14:44;;;;;;;;;22.83;21.83;;;;;7.06;62.79;102377.59;2205699;25;1840338;-74
2024/04/22 05:15:56;;;;;;;;;23.67;20.33;;;;;7.08;62.64;102375.00;2148927;26;3579390;-74
2024/04/22 05:17:10;;;;;;;;;20.17;18.33;;;;;7.12;63.05;102379.38;2205228;26;1837744;-75
2024/04/22 05:18:21;;;;;;;;;25.00;19.00;;;;;7.13;62.74;102375.03;2150297;26;2840873;-74
2024/04/22 05:19:32;;;;;;;;;19.00;19.00;;;;;7.15;63.02;102378.53;2147656;26;2817949;-74
2024/04/22 05:20:44;;;;;;;;;20.33;18.67;;;;;7.19;62.73;102382.91;2124022;26;3564834;-74
2024/04/22 05:21:55;;;;;;;;;21.00;17.00;;;;;7.17;62.31;102372.47;2161036;26;2833557;-74
2024/04/22 05:23:06;;;;;;;;;17.50;16.50;;;;;7.19;62.60;102383.81;2134971;26;2836646;-75
2024/04/22 05:24:19;;;;;;;;;27.33;21.33;;;;;7.19;62.53;102375.97;2138727;26;3589758;-74
2024/04/22 05:25:30;;;;;;;;;18.00;14.00;;;;;7.19;62.34;102378.56;2175405;26;2811653;-74
2024/04/22 05:26:41;;;;;;;;;18.50;18.00;;;;;7.19;62.43;102372.47;2147197;26;2824151;-74
2024/04/22 05:27:56;;;;;;;;;17.14;16.29;;;;;7.20;61.99;102380.34;2182929;26;1828786;-74
2024/04/22 05:29:09;;;;;;;;;19.60;17.40;;;;;7.15;62.10;102374.19;2182567;26;2828263;-74
2024/04/22 05:30:20;;;;;;;;;16.50;16.50;;;;;7.17;61.95;102375.06;2147177;26;2809577;-74